AirNav   Everest Fuels
 
 1303 users online  

4MN2 Coot Landing Airport
Barnsville, Minnesota, USA

GOING TO BARNSVILLE?


FAA INFORMATION EFFECTIVE 15 JULY 2021

Location

FAA Identifier: 4MN2
Lat/Long: 46-39-49.8510N 096-14-30.3260W
46-39.830850N 096-14.505433W
46.6638475,-96.2417572
(estimated)
Elevation: 1325 ft. / 404 m (estimated)
From city: 8 miles E of BARNSVILLE, MN
Time zone: UTC -5 (UTC -6 during Standard Time)
Zip code: 56514

Airport Operations

Airport use: Private use. Permission required prior to landing
Activation date: 02/2004
Control tower: no
ARTCC: MINNEAPOLIS CENTER
FSS: PRINCETON FLIGHT SERVICE STATION
Attendance: UNATNDD
Segmented circle: no

Airport Communications

WX AWOS-3 at DTL (18 nm NE): 119.075 (218-847-8626)

Nearby radio navigation aids

VOR radial/distance  VOR name  Freq  Var
DTLr234/17.5DETROIT LAKES VOR/DME111.2002E
FFMr346/22.7FERGUS FALLS VOR/DME110.4005E
FARr093/25.6FARGO VOR/DME116.2009E

Airport Services

Runway Information

Runway 7/25

Dimensions: 1800 x 75 ft. / 549 x 23 m
Surface: turf
RUNWAY 7  RUNWAY 25
Traffic pattern: leftleft

Airport Ownership and Management from official FAA records

Ownership: Privately-owned
Owner: JOHN OHNSTAD
1201 41ST AVE N
FARGO, ND 58102
Phone (701) 799-3460
Manager: JAMES OHNSTAD
1201 41ST AVE N
FARGO, ND 58102
Phone (701) 799-3460

Airport Operational Statistics

Aircraft based on the field: 13
Single engine airplanes: 13
    

Additional Remarks

1245 FT TOWER 1 MILE NE.
DO NOT CHART PER MINNESOTA DEPARTMENT OF TRANSPORTATION
FOR CD CTC MINNEAPOLIS ARTCC AT 651-463-5588.

Instrument Procedures

There are no published instrument procedures at 4MN2.

Some nearby airports with instrument procedures:

04Y - Hawley Municipal Airport (14 nm N)
KDTL - Detroit Lakes Airport-Wething Field (18 nm NE)
KJKJ - Moorhead Municipal Airport (20 nm NW)
KFFM - Fergus Falls Municipal Airport-Einar Mickelson Field (23 nm S)
16D - Perham Municipal Airport (26 nm E)
 
Loc | Ops | Rwys | IFR | FBO | Links
Com | Nav | Svcs | Stats | Notes
Area around 4MN2 (Coot Landing Airport)
 
Road maps at: MapQuest Bing Google
 
Aerial photo
No photo
 
Sectional chart

 
Airport distance calculator
Flying to Coot Landing Airport? Find the distance to fly.

From to 4MN2

Sunrise and sunset
Times for 28-Jul-2021
 Local
(UTC-5)
 Zulu
(UTC)
Morning civil twilight05:2610:26
Sunrise06:0211:02
Sunset21:0102:01
Evening civil twilight21:3702:37

Current date and time
Zulu (UTC)  28-Jul-2021 22:22:37
Local (UTC-5)  28-Jul-2021 17:22:37
 
METAR
KDTL 
18nm NE 
282155Z AUTO 32013KT 10SM BKN023 OVC032 29/24 A2987 RMK AO2
KJKJ 
20nm NW 
282155Z AUTO 33013G17KT 10SM CLR 29/22 A2987 RMK AO2
KFFM 
24nm S 
282155Z AUTO 30006KT 10SM CLR 30/23 A2983 RMK AO2
KFAR 
29nm NW 
282153Z 34014KT 10SM FEW019 OVC030 29/23 A2987 RMK AO2 PK WND 34027/2127 SLP108 T02890228
KBWP 
29nm SW 
282155Z AUTO 33011KT 10SM CLR 30/24 A2984 RMK AO2
TAF
KFAR 
29nm NW 
281727Z 2818/2918 19013G22KT P6SM SCT150 FM281900 32015G28KT P6SM SCT035 BKN100 FM290000 35016G24KT P6SM SCT250 FM290300 01010KT P6SM FEW250 FM291600 36010G18KT P6SM FEW250
NOTAMs
Click for the latest NOTAMs
NOTAMs are issued by the DoD/FAA and will open in a separate window not controlled by AirNav.

 

 
 

Would you like to see your business listed on this page?

 If your business provides an interesting product or service to pilots, flight crews, aircraft, or users of the Coot Landing Airport, you should consider listing it here.  To start the listing process, click on the button below
 
Add a business
 

Other Pages about Coot Landing Airport

Update a link
 
Copyright © AirNav, LLC. All rights reserved. Privacy Policy  Contact